createdAt,value
2018-03-11T00:02:17.972Z,9.40
2018-03-11T00:04:44.898Z,9.30
2018-03-11T00:07:11.925Z,9.30
2018-03-11T00:09:38.892Z,9.30
2018-03-11T00:12:05.939Z,9.30
2018-03-11T00:14:32.995Z,9.20
2018-03-11T00:16:59.975Z,9.20
2018-03-11T00:19:26.938Z,9.20
2018-03-11T00:21:53.918Z,9.10
2018-03-11T00:24:20.887Z,9.10
2018-03-11T00:26:48.631Z,9.00
2018-03-11T00:29:15.653Z,9.00
2018-03-11T00:31:42.623Z,9.00
2018-03-11T00:34:09.590Z,8.90
2018-03-11T00:36:36.579Z,8.90
2018-03-11T00:39:03.548Z,8.80
2018-03-11T00:41:31.309Z,8.70
2018-03-11T00:43:58.340Z,8.70
2018-03-11T00:46:25.307Z,8.70
2018-03-11T00:48:52.358Z,8.70
2018-03-11T00:51:19.339Z,8.70
2018-03-11T00:53:46.310Z,8.60
2018-03-11T00:56:14.863Z,8.50
2018-03-11T00:58:41.843Z,8.50
2018-03-11T01:01:08.806Z,8.60
2018-03-11T01:03:35.844Z,8.50
2018-03-11T01:06:02.812Z,8.50
2018-03-11T01:08:29.795Z,8.50
2018-03-11T01:10:56.768Z,8.50
2018-03-11T01:13:24.511Z,8.40
2018-03-11T01:15:51.555Z,8.40
2018-03-11T01:18:18.615Z,8.40
2018-03-11T01:20:45.691Z,8.40
2018-03-11T01:23:12.672Z,8.40
2018-03-11T01:25:39.639Z,8.40
2018-03-11T01:28:07.472Z,8.40
2018-03-11T01:30:34.531Z,8.30
2018-03-11T01:33:01.587Z,8.30
2018-03-11T01:35:28.583Z,8.30
2018-03-11T01:37:55.611Z,8.30
2018-03-11T01:40:22.583Z,8.20
2018-03-11T01:42:49.628Z,8.30
2018-03-11T01:45:16.604Z,8.20
2018-03-11T01:47:43.571Z,8.20
2018-03-11T01:50:10.547Z,8.20
2018-03-11T01:52:43.296Z,8.20
2018-03-11T01:55:10.311Z,8.10
2018-03-11T01:57:38.044Z,8.10
2018-03-11T02:00:05.096Z,8.10
2018-03-11T02:02:32.142Z,8.10
2018-03-11T02:04:59.122Z,8.00
2018-03-11T02:07:26.163Z,8.10
2018-03-11T02:09:53.226Z,8.00
2018-03-11T02:12:20.199Z,8.00
2018-03-11T02:14:47.167Z,8.00
2018-03-11T02:17:14.207Z,8.00
2018-03-11T02:19:41.200Z,8.00
2018-03-11T02:22:08.171Z,8.00
2018-03-11T02:24:36.005Z,8.10
2018-03-11T02:27:03.059Z,8.10
2018-03-11T02:29:30.135Z,8.10
2018-03-11T02:31:57.112Z,8.10
2018-03-11T02:34:24.135Z,8.10
2018-03-11T02:36:51.107Z,8.20
2018-03-11T02:39:18.161Z,8.20
2018-03-11T02:41:46.072Z,8.20
2018-03-11T02:44:13.099Z,8.20
2018-03-11T02:46:40.187Z,8.20
2018-03-11T02:49:07.210Z,8.20
2018-03-11T02:51:34.207Z,8.30
2018-03-11T02:54:01.180Z,8.30
2018-03-11T02:56:28.151Z,8.20
2018-03-11T02:58:55.889Z,8.20
2018-03-11T03:01:22.867Z,8.20
2018-03-11T03:03:49.883Z,8.30
2018-03-11T03:06:16.850Z,8.30
2018-03-11T03:08:43.908Z,8.20
2018-03-11T03:11:10.875Z,8.30
2018-03-11T03:13:37.931Z,8.30
2018-03-11T03:16:04.902Z,8.30
2018-03-11T03:18:31.876Z,8.20
2018-03-11T03:20:58.919Z,8.20
2018-03-11T03:23:25.900Z,8.30
2018-03-11T03:25:52.915Z,8.20
2018-03-11T03:28:20.895Z,8.20
2018-03-11T03:30:47.885Z,8.20
2018-03-11T03:33:14.916Z,8.20
2018-03-11T03:35:41.975Z,8.30
2018-03-11T03:38:08.947Z,8.30
2018-03-11T03:40:35.910Z,8.20
2018-03-11T03:43:02.892Z,8.20
2018-03-11T03:45:29.907Z,8.20
2018-03-11T03:47:56.970Z,8.20
2018-03-11T03:50:23.952Z,8.20
2018-03-11T03:52:50.927Z,8.20
2018-03-11T03:55:17.899Z,8.20
2018-03-11T03:57:45.635Z,8.20
2018-03-11T04:00:12.675Z,8.20
2018-03-11T04:02:39.824Z,8.30
2018-03-11T04:05:07.572Z,8.30
2018-03-11T04:07:35.398Z,8.30
2018-03-11T04:10:02.377Z,8.30
2018-03-11T04:12:29.415Z,8.40
2018-03-11T04:14:56.388Z,8.40
2018-03-11T04:17:23.432Z,8.40
2018-03-11T04:19:50.411Z,8.50
2018-03-11T04:22:17.383Z,8.50
2018-03-11T04:24:44.364Z,8.60
2018-03-11T04:27:12.100Z,8.60
2018-03-11T04:29:39.075Z,8.60
2018-03-11T04:32:06.042Z,8.70
2018-03-11T04:34:33.060Z,8.70
2018-03-11T04:37:00.031Z,8.70
2018-03-11T04:39:27.012Z,8.70
2018-03-11T04:41:54.035Z,8.70
2018-03-11T04:44:21.004Z,8.70
2018-03-11T04:46:47.978Z,8.70
2018-03-11T04:49:15.011Z,8.70
2018-03-11T04:51:42.067Z,8.70
2018-03-11T04:54:09.035Z,8.70
2018-03-11T04:56:36.016Z,8.70
2018-03-11T04:59:03.042Z,8.70
2018-03-11T05:01:30.019Z,8.70
2018-03-11T05:03:56.984Z,8.70
2018-03-11T05:06:23.962Z,8.70
2018-03-11T05:08:50.933Z,8.60
2018-03-11T05:11:18.671Z,8.60
2018-03-11T05:13:45.643Z,8.60
2018-03-11T05:16:12.679Z,8.60
2018-03-11T05:18:40.660Z,8.60
2018-03-11T05:21:07.629Z,8.60
2018-03-11T05:23:34.599Z,8.60
2018-03-11T05:26:03.075Z,8.50
2018-03-11T05:28:30.058Z,8.50
2018-03-11T05:30:57.019Z,8.50
2018-03-11T05:33:24.043Z,8.50
2018-03-11T05:35:51.094Z,8.50
2018-03-11T05:38:19.016Z,8.40
2018-03-11T05:40:45.979Z,8.40
2018-03-11T05:43:12.994Z,8.40
2018-03-11T05:45:40.064Z,8.40
2018-03-11T05:48:07.133Z,8.40
2018-03-11T05:50:34.098Z,8.40
2018-03-11T05:53:01.080Z,8.40
2018-03-11T05:55:28.095Z,8.30
2018-03-11T05:57:55.155Z,8.30
2018-03-11T06:00:22.127Z,8.30
2018-03-11T06:02:49.176Z,8.30
2018-03-11T06:05:16.230Z,8.30
2018-03-11T06:07:43.211Z,8.30
2018-03-11T06:10:10.280Z,8.30
2018-03-11T06:12:37.246Z,8.30
2018-03-11T06:15:04.271Z,8.30
2018-03-11T06:17:31.331Z,8.30
2018-03-11T06:19:58.302Z,8.30
2018-03-11T06:22:25.270Z,8.40
2018-03-11T06:24:52.306Z,8.40
2018-03-11T06:27:19.274Z,8.40
2018-03-11T06:29:46.319Z,8.50
2018-03-11T06:32:13.447Z,8.50
2018-03-11T06:34:41.275Z,8.50
2018-03-11T06:37:08.319Z,8.50
2018-03-11T06:39:35.383Z,8.60
2018-03-11T06:42:02.351Z,8.60
2018-03-11T06:44:29.331Z,8.60
2018-03-11T06:46:56.363Z,8.70
2018-03-11T06:49:23.447Z,8.80
2018-03-11T06:51:50.410Z,8.80
2018-03-11T06:54:17.443Z,8.90
2018-03-11T06:56:44.495Z,8.90
2018-03-11T06:59:11.451Z,8.90
2018-03-11T07:01:38.428Z,9.00
2018-03-11T07:04:05.398Z,9.00
2018-03-11T07:06:32.375Z,9.10
2018-03-11T07:09:00.207Z,9.20
2018-03-11T07:11:27.187Z,9.20
2018-03-11T07:13:54.159Z,9.30
2018-03-11T07:16:21.229Z,9.30
2018-03-11T07:18:48.155Z,9.40
2018-03-11T07:21:15.203Z,9.50
2018-03-11T07:23:42.175Z,9.50
2018-03-11T07:26:09.226Z,9.60
2018-03-11T07:28:36.195Z,9.60
2018-03-11T07:31:03.196Z,9.70
2018-03-11T07:33:30.925Z,9.80
2018-03-11T07:35:58.001Z,9.80
2018-03-11T07:38:25.961Z,9.90
2018-03-11T07:40:52.930Z,9.90
2018-03-11T07:43:19.980Z,9.90
2018-03-11T07:45:47.031Z,9.90
2018-03-11T07:48:14.016Z,9.90
2018-03-11T07:50:40.987Z,9.90
2018-03-11T07:53:07.967Z,10.00
2018-03-11T07:55:35.719Z,10.00
2018-03-11T07:58:02.705Z,10.00
2018-03-11T08:00:30.447Z,10.10
2018-03-11T08:02:57.487Z,10.00
2018-03-11T08:05:24.462Z,10.10
2018-03-11T08:07:51.443Z,10.10
2018-03-11T08:10:18.454Z,10.20
2018-03-11T08:12:45.436Z,10.20
2018-03-11T08:15:12.419Z,10.30
2018-03-11T08:17:39.415Z,10.30
2018-03-11T08:20:06.390Z,10.30
2018-03-11T08:22:33.359Z,10.30
2018-03-11T08:25:00.408Z,10.40
2018-03-11T08:27:27.387Z,10.40
2018-03-11T08:29:54.423Z,10.50
2018-03-11T08:32:21.399Z,10.60
2018-03-11T08:34:48.382Z,10.60
2018-03-11T08:37:15.406Z,10.70
2018-03-11T08:39:42.463Z,10.70
2018-03-11T08:42:09.435Z,10.70
2018-03-11T08:44:36.487Z,10.80
2018-03-11T08:47:03.464Z,10.80
2018-03-11T08:49:30.499Z,10.80
2018-03-11T08:51:57.527Z,10.80
2018-03-11T08:54:26.083Z,10.80
2018-03-11T08:56:53.055Z,10.80
2018-03-11T08:59:20.043Z,10.90
2018-03-11T09:01:47.111Z,10.90
2018-03-11T09:04:14.835Z,11.10
2018-03-11T09:06:41.866Z,11.10
2018-03-11T09:09:08.843Z,11.10
2018-03-11T09:11:35.888Z,11.20
2018-03-11T09:14:02.871Z,11.30
2018-03-11T09:16:29.847Z,11.40
2018-03-11T09:18:56.815Z,11.40
2018-03-11T09:21:24.554Z,11.40
2018-03-11T09:23:51.541Z,11.30
2018-03-11T09:26:18.524Z,11.40
2018-03-11T09:28:45.490Z,11.40
2018-03-11T09:31:12.467Z,11.40
2018-03-11T09:33:41.410Z,11.40
2018-03-11T09:36:08.391Z,11.50
2018-03-11T09:38:36.136Z,11.50
2018-03-11T09:41:03.115Z,11.50
2018-03-11T09:43:30.851Z,11.60
2018-03-11T09:45:57.840Z,11.60
2018-03-11T09:48:24.807Z,11.60
2018-03-11T09:50:52.571Z,11.60
2018-03-11T09:53:19.547Z,11.60
2018-03-11T09:55:47.287Z,11.60
2018-03-11T09:58:14.267Z,11.60
2018-03-11T10:00:41.238Z,11.60
2018-03-11T10:03:08.984Z,11.60
2018-03-11T10:05:36.019Z,11.60
2018-03-11T10:08:02.995Z,11.60
2018-03-11T10:10:29.971Z,11.70
2018-03-11T10:12:56.998Z,11.70
2018-03-11T10:15:23.972Z,11.80
2018-03-11T10:17:51.017Z,11.80
2018-03-11T10:20:17.988Z,11.80
2018-03-11T10:22:44.968Z,11.90
2018-03-11T10:25:11.946Z,11.90
2018-03-11T10:27:39.750Z,11.90
2018-03-11T10:30:07.518Z,11.90
2018-03-11T10:32:34.503Z,11.90
2018-03-11T10:35:01.509Z,11.90
2018-03-11T10:37:28.455Z,11.90
2018-03-11T10:39:55.429Z,12.00
2018-03-11T10:42:23.251Z,12.10
2018-03-11T10:44:50.243Z,12.10
2018-03-11T10:47:17.276Z,12.10
2018-03-11T10:49:44.327Z,12.10
2018-03-11T10:52:11.423Z,12.20
2018-03-11T10:54:38.398Z,12.20
2018-03-11T10:57:06.231Z,12.20
2018-03-11T10:59:33.295Z,12.20
2018-03-11T11:02:01.064Z,12.20
2018-03-11T11:04:33.966Z,12.20
2018-03-11T11:07:00.940Z,12.30
2018-03-11T11:09:27.923Z,12.30
2018-03-11T11:11:54.905Z,12.40
2018-03-11T11:14:22.801Z,12.40
2018-03-11T11:16:50.514Z,12.40
2018-03-11T11:19:17.521Z,12.40
2018-03-11T11:21:44.473Z,12.50
2018-03-11T11:24:12.214Z,12.50
2018-03-11T11:26:39.187Z,12.50
2018-03-11T11:29:06.161Z,12.50
2018-03-11T11:31:33.142Z,12.50
2018-03-11T11:34:00.120Z,12.50
2018-03-11T11:36:27.095Z,12.50
2018-03-11T11:38:54.143Z,12.60
2018-03-11T11:41:21.124Z,12.60
2018-03-11T11:43:48.172Z,12.60
2018-03-11T11:46:15.224Z,12.60
2018-03-11T11:48:42.242Z,12.60
2018-03-11T11:51:09.182Z,12.70
2018-03-11T11:53:36.150Z,12.70
2018-03-11T11:56:03.899Z,12.70
2018-03-11T11:58:30.870Z,12.70
2018-03-11T12:00:57.950Z,12.70
2018-03-11T12:03:25.690Z,12.60
2018-03-11T12:05:52.718Z,12.60
2018-03-11T12:08:19.959Z,12.60
2018-03-11T12:10:47.161Z,12.60
2018-03-11T12:13:14.211Z,12.50
2018-03-11T12:15:41.284Z,12.50
2018-03-11T12:18:08.267Z,12.50
2018-03-11T12:20:35.239Z,12.50
2018-03-11T12:23:03.373Z,12.50
2018-03-11T12:25:30.325Z,12.50
2018-03-11T12:27:57.390Z,12.50
2018-03-11T12:30:24.460Z,12.60
2018-03-11T12:32:51.556Z,12.60
2018-03-11T12:35:18.529Z,12.60
2018-03-11T12:37:46.267Z,12.60
2018-03-11T12:40:13.263Z,12.70
2018-03-11T12:42:41.023Z,12.70
2018-03-11T12:45:08.768Z,12.70
2018-03-11T12:47:35.746Z,12.70
2018-03-11T12:50:02.779Z,12.80
2018-03-11T12:52:29.843Z,12.80
2018-03-11T12:54:56.824Z,12.90
2018-03-11T12:57:23.790Z,12.80
2018-03-11T12:59:50.771Z,12.90
2018-03-11T13:02:18.521Z,12.90
2018-03-11T13:04:45.486Z,12.80
2018-03-11T13:07:13.389Z,12.80
2018-03-11T13:09:40.352Z,12.80
2018-03-11T13:12:08.163Z,12.90
2018-03-11T13:14:35.222Z,12.90
2018-03-11T13:17:02.470Z,12.90
2018-03-11T13:19:31.594Z,13.30
2018-03-11T13:21:59.279Z,13.80
2018-03-11T13:24:26.270Z,13.70
2018-03-11T13:26:53.290Z,14.40
2018-03-11T13:29:20.272Z,15.20
2018-03-11T13:31:47.256Z,16.30
2018-03-11T13:34:20.875Z,18.20
2018-03-11T13:36:48.620Z,19.00
2018-03-11T13:39:21.542Z,19.00
2018-03-11T13:41:48.555Z,19.80
2018-03-11T13:44:15.610Z,20.40
2018-03-11T13:46:48.615Z,20.60
2018-03-11T13:49:15.679Z,20.60
2018-03-11T13:51:48.579Z,20.20
2018-03-11T13:54:15.567Z,19.80
2018-03-11T13:56:42.556Z,19.20
2018-03-11T13:59:10.295Z,18.60
2018-03-11T14:01:37.271Z,18.60
2018-03-11T14:04:05.024Z,18.50
2018-03-11T14:06:32.031Z,18.50
2018-03-11T14:08:59.743Z,17.90
2018-03-11T14:11:26.801Z,17.90
2018-03-11T14:13:53.883Z,17.70
2018-03-11T14:16:20.862Z,17.40
2018-03-11T14:18:48.696Z,17.00
2018-03-11T14:21:15.751Z,17.00
2018-03-11T14:23:42.735Z,16.70
2018-03-11T14:26:09.775Z,16.60
2018-03-11T14:28:36.830Z,16.60
2018-03-11T14:31:03.812Z,16.50
2018-03-11T14:33:30.855Z,16.40
2018-03-11T14:35:57.844Z,16.20
2018-03-11T14:38:24.822Z,16.10
2018-03-11T14:40:54.203Z,15.70
2018-03-11T14:43:21.222Z,15.70
2018-03-11T14:45:49.011Z,15.50
2018-03-11T14:48:16.779Z,15.50
2018-03-11T14:50:44.511Z,15.30
2018-03-11T14:53:11.487Z,15.30
2018-03-11T14:55:39.392Z,15.10
2018-03-11T14:58:07.120Z,15.10
2018-03-11T15:00:34.187Z,15.00
2018-03-11T15:03:01.207Z,15.00
2018-03-11T15:05:28.196Z,14.90
2018-03-11T15:07:55.170Z,14.80
2018-03-11T15:10:22.912Z,14.70
2018-03-11T15:12:49.955Z,14.70
2018-03-11T15:15:16.931Z,14.60
2018-03-11T15:17:43.904Z,14.60
2018-03-11T15:20:12.392Z,14.40
2018-03-11T15:22:39.411Z,14.40
2018-03-11T15:25:06.386Z,14.40
2018-03-11T15:27:33.451Z,14.40
2018-03-11T15:30:00.514Z,14.40
2018-03-11T15:32:27.484Z,14.30
2018-03-11T15:34:54.468Z,14.30
2018-03-11T15:37:21.439Z,14.30
2018-03-11T15:39:49.183Z,14.30
2018-03-11T15:42:16.210Z,14.30
2018-03-11T15:44:43.283Z,14.20
2018-03-11T15:47:10.267Z,14.20
2018-03-11T15:49:37.263Z,14.20
2018-03-11T15:52:05.023Z,14.20
2018-03-11T15:54:32.780Z,14.20
2018-03-11T15:56:59.747Z,14.20
2018-03-11T15:59:26.768Z,14.20
2018-03-11T16:01:53.739Z,14.20
2018-03-11T16:04:20.723Z,14.20
2018-03-11T16:06:47.694Z,14.10
2018-03-11T16:09:15.520Z,14.10
2018-03-11T16:11:42.492Z,14.10
2018-03-11T16:14:09.474Z,14.10
2018-03-11T16:16:36.503Z,14.00
2018-03-11T16:19:03.500Z,14.00
2018-03-11T16:21:30.463Z,14.00
2018-03-11T16:23:58.210Z,13.90
2018-03-11T16:26:25.244Z,13.90
2018-03-11T16:28:53.236Z,13.90
2018-03-11T16:31:20.203Z,13.80
2018-03-11T16:33:47.188Z,13.80
2018-03-11T16:36:14.208Z,13.70
2018-03-11T16:38:42.127Z,13.70
2018-03-11T16:41:09.104Z,13.70
2018-03-11T16:43:36.862Z,13.60
2018-03-11T16:46:03.833Z,13.50
2018-03-11T16:48:31.656Z,13.40
2018-03-11T16:50:58.715Z,13.40
2018-03-11T16:53:25.776Z,13.40
2018-03-11T16:55:52.747Z,13.30
2018-03-11T16:58:20.649Z,13.30
2018-03-11T17:00:47.620Z,13.20
2018-03-11T17:03:15.458Z,13.10
2018-03-11T17:05:42.431Z,13.00
2018-03-11T17:08:09.403Z,13.00
2018-03-11T17:10:36.388Z,13.00
2018-03-11T17:13:03.363Z,12.90
2018-03-11T17:15:30.344Z,12.80
2018-03-11T17:17:57.314Z,12.80
2018-03-11T17:20:24.358Z,12.70
2018-03-11T17:22:51.332Z,12.60
2018-03-11T17:25:18.324Z,12.60
2018-03-11T17:27:45.291Z,12.50
2018-03-11T17:30:13.115Z,12.40
2018-03-11T17:32:40.183Z,12.40
2018-03-11T17:35:07.172Z,12.30
2018-03-11T17:37:34.138Z,12.30
2018-03-11T17:40:01.972Z,12.20
2018-03-11T17:42:29.033Z,12.10
2018-03-11T17:44:56.043Z,12.10
2018-03-11T17:47:23.051Z,12.10
2018-03-11T17:49:50.034Z,12.00
2018-03-11T17:52:17.003Z,12.00
2018-03-11T17:54:43.983Z,11.90
2018-03-11T17:57:11.799Z,11.90
2018-03-11T17:59:38.812Z,11.80
2018-03-11T18:02:06.680Z,11.80
2018-03-11T18:04:33.523Z,11.80
2018-03-11T18:07:00.499Z,11.70
2018-03-11T18:09:28.244Z,11.70
2018-03-11T18:11:55.220Z,11.70
2018-03-11T18:14:22.264Z,11.70
2018-03-11T18:16:49.940Z,11.50
2018-03-11T18:19:16.987Z,11.50
2018-03-11T18:21:43.959Z,11.50
2018-03-11T18:24:10.939Z,11.50
2018-03-11T18:26:37.965Z,11.50
2018-03-11T18:29:05.021Z,11.50
2018-03-11T18:31:31.986Z,11.40
2018-03-11T18:33:58.970Z,11.40
2018-03-11T18:36:25.938Z,11.40
2018-03-11T18:38:52.959Z,11.40
2018-03-11T18:41:19.931Z,11.40
2018-03-11T18:43:46.971Z,11.40
2018-03-11T18:46:13.939Z,11.40
2018-03-11T18:48:40.933Z,11.40
2018-03-11T18:51:07.899Z,11.40
2018-03-11T18:53:35.639Z,11.30
2018-03-11T18:56:02.684Z,11.30
2018-03-11T18:58:29.743Z,11.30
2018-03-11T19:00:56.738Z,11.30
2018-03-11T19:03:23.759Z,11.30
2018-03-11T19:05:50.743Z,11.30
2018-03-11T19:08:20.159Z,11.30
2018-03-11T19:10:47.139Z,11.30
2018-03-11T19:13:14.970Z,11.30
2018-03-11T19:15:41.952Z,11.30
2018-03-11T19:18:08.928Z,11.30
2018-03-11T19:20:35.967Z,11.30
2018-03-11T19:23:02.931Z,11.30
2018-03-11T19:25:29.967Z,11.30
2018-03-11T19:27:56.935Z,11.30
2018-03-11T19:30:23.916Z,11.30
2018-03-11T19:32:50.896Z,11.30
2018-03-11T19:35:18.647Z,11.30
2018-03-11T19:37:45.676Z,11.30
2018-03-11T19:40:12.655Z,11.30
2018-03-11T19:42:39.632Z,11.30
2018-03-11T19:45:06.611Z,11.30
2018-03-11T19:47:34.342Z,11.30
2018-03-11T19:50:01.328Z,11.30
2018-03-11T19:52:28.339Z,11.30
2018-03-11T19:54:55.406Z,11.30
2018-03-11T19:57:22.374Z,11.20
2018-03-11T19:59:49.349Z,11.20
2018-03-11T20:02:16.382Z,11.20
2018-03-11T20:04:43.351Z,11.20
2018-03-11T20:07:10.383Z,11.20
2018-03-11T20:09:38.090Z,11.10
2018-03-11T20:12:05.105Z,11.10
2018-03-11T20:14:32.075Z,11.10
2018-03-11T20:16:59.064Z,11.10
2018-03-11T20:19:26.035Z,11.10
2018-03-11T20:21:53.880Z,11.10
2018-03-11T20:24:20.947Z,11.10
2018-03-11T20:26:47.923Z,11.20
2018-03-11T20:29:14.899Z,11.10
2018-03-11T20:31:41.879Z,11.10
2018-03-11T20:34:09.636Z,11.10
2018-03-11T20:36:36.625Z,11.10
2018-03-11T20:39:03.587Z,11.10
2018-03-11T20:41:30.562Z,11.10
2018-03-11T20:43:57.636Z,11.10
2018-03-11T20:46:24.699Z,11.10
2018-03-11T20:48:51.670Z,11.10
2018-03-11T20:51:18.647Z,11.10
2018-03-11T20:53:45.639Z,11.10
2018-03-11T20:56:13.369Z,11.00
2018-03-11T20:58:40.380Z,11.00
2018-03-11T21:01:07.352Z,10.90
2018-03-11T21:03:34.338Z,10.90
2018-03-11T21:06:01.370Z,10.90
2018-03-11T21:08:28.351Z,10.90
2018-03-11T21:10:55.325Z,10.90
2018-03-11T21:13:22.307Z,10.80
2018-03-11T21:15:50.136Z,10.70
2018-03-11T21:18:17.199Z,10.70
2018-03-11T21:20:44.177Z,10.70
2018-03-11T21:23:11.160Z,10.70
2018-03-11T21:25:38.895Z,10.70
2018-03-11T21:28:05.942Z,10.60
2018-03-11T21:30:32.991Z,10.60
2018-03-11T21:32:59.983Z,10.60
2018-03-11T21:35:26.959Z,10.60
2018-03-11T21:37:53.980Z,10.50
2018-03-11T21:40:20.959Z,10.50
2018-03-11T21:42:48.011Z,10.50
2018-03-11T21:45:14.991Z,10.50
2018-03-11T21:47:42.019Z,10.50
2018-03-11T21:50:09.084Z,10.50
2018-03-11T21:52:36.062Z,10.50
2018-03-11T21:55:03.116Z,10.40
2018-03-11T21:57:30.090Z,10.40
2018-03-11T21:59:57.076Z,10.40
2018-03-11T22:02:24.807Z,10.40
2018-03-11T22:04:51.789Z,10.40
2018-03-11T22:07:18.763Z,10.40
2018-03-11T22:09:46.503Z,10.30
2018-03-11T22:12:13.480Z,10.30
2018-03-11T22:14:40.462Z,10.30
2018-03-11T22:17:08.205Z,10.30
2018-03-11T22:19:35.170Z,10.30
2018-03-11T22:22:02.152Z,10.30
2018-03-11T22:24:29.894Z,10.30
2018-03-11T22:26:56.927Z,10.30
2018-03-11T22:29:23.904Z,10.30
2018-03-11T22:31:50.947Z,10.30
2018-03-11T22:34:17.915Z,10.30
2018-03-11T22:36:44.896Z,10.30
2018-03-11T22:39:11.868Z,10.30
2018-03-11T22:41:39.700Z,10.30
2018-03-11T22:44:06.672Z,10.20
2018-03-11T22:46:33.648Z,10.20
2018-03-11T22:49:00.623Z,10.30
2018-03-11T22:51:28.430Z,10.30
2018-03-11T22:53:55.354Z,10.20
2018-03-11T22:56:23.106Z,10.30
2018-03-11T22:58:50.079Z,10.20
2018-03-11T23:01:17.059Z,10.20
2018-03-11T23:03:44.878Z,10.20
2018-03-11T23:06:11.859Z,10.20
2018-03-11T23:08:38.904Z,10.20
2018-03-11T23:11:05.874Z,10.20
2018-03-11T23:13:32.851Z,10.20
2018-03-11T23:15:59.835Z,10.20
2018-03-11T23:18:27.574Z,10.10
2018-03-11T23:20:54.556Z,10.10
2018-03-11T23:23:22.307Z,10.10
2018-03-11T23:25:49.342Z,10.10
2018-03-11T23:28:16.447Z,10.10
2018-03-11T23:30:43.419Z,10.10
2018-03-11T23:33:11.168Z,10.10
2018-03-11T23:35:38.148Z,10.10
2018-03-11T23:38:05.154Z,10.10
2018-03-11T23:40:32.127Z,10.10
2018-03-11T23:42:59.110Z,10.10
2018-03-11T23:45:26.096Z,10.10
2018-03-11T23:47:53.909Z,10.10
2018-03-11T23:50:20.971Z,10.10
2018-03-11T23:52:47.963Z,10.10
2018-03-11T23:55:14.988Z,10.10
2018-03-11T23:57:42.051Z,10.00
